Time;durP1;ratioP1;P1;durP2;ratioP2;P2;SDS_P1;SDS_P2;PMS_P1;PMS_P2;Temp;Humidity;BMP_temperature;BMP_pressure;BME280_temperature;BME280_humidity;BME280_pressure;Samples;Min_cycle;Max_cycle;Signal;HPM_P1;HPM_P2
2022/11/25 00:00:49;;;;;;;;;;;6.00;99.90;;;;;;4971850;28;19910;-69
2022/11/25 00:03:15;;;;;;;;;;;6.00;99.90;;;;;;4975764;28;19909;-63
2022/11/25 00:05:40;;;;;;;;;;;6.00;99.90;;;;;;4975540;28;19910;-61
2022/11/25 00:08:06;;;;;;;;;;;6.00;99.90;;;;;;4977270;28;20001;-63
2022/11/25 00:10:31;;;;;;;;;;;6.00;99.90;;;;;;4971872;28;19921;-62
2022/11/25 00:12:57;;;;;;;;;;;6.00;99.90;;;;;;4975429;28;19910;-63
2022/11/25 00:15:22;;;;;;;;;;;6.10;99.90;;;;;;4976209;28;19921;-62
2022/11/25 00:17:48;;;;;;;;;;;6.20;99.90;;;;;;4969422;28;19914;-60
2022/11/25 00:20:13;;;;;;;;;;;6.20;99.90;;;;;;4971346;28;19910;-61
2022/11/25 00:22:39;;;;;;;;;;;6.20;99.90;;;;;;4967294;28;20021;-63
2022/11/25 00:25:04;;;;;;;;;;;6.30;99.90;;;;;;4970035;28;19997;-60
2022/11/25 00:27:30;;;;;;;;;;;6.30;99.90;;;;;;4974898;28;19921;-62
2022/11/25 00:29:55;;;;;;;;;;;6.40;99.90;;;;;;4974411;28;20434;-63
2022/11/25 00:32:21;;;;;;;;;;;6.40;99.90;;;;;;4969810;28;19968;-55
2022/11/25 00:34:46;;;;;;;;;;;6.40;99.90;;;;;;4971216;28;19910;-61
2022/11/25 00:37:12;;;;;;;;;;;6.50;99.90;;;;;;4981514;28;19995;-63
2022/11/25 00:39:37;;;;;;;;;;;6.60;99.90;;;;;;4972895;28;19910;-63
2022/11/25 00:44:47;;;;;;;;;;;6.60;99.90;;;;;;4970338;28;20288;-60
2022/11/25 00:47:13;;;;;;;;;;;6.60;99.90;;;;;;4973552;28;19910;-64
2022/11/25 00:49:39;;;;;;;;;;;6.60;99.90;;;;;;4971475;28;20446;-63
2022/11/25 00:52:05;;;;;;;;;;;6.70;99.90;;;;;;4977073;28;19910;-62
2022/11/25 00:54:31;;;;;;;;;;;6.70;99.90;;;;;;4972110;28;19921;-63
2022/11/25 00:56:57;;;;;;;;;;;6.80;99.90;;;;;;4979278;28;20523;-62
2022/11/25 00:59:22;;;;;;;;;;;6.80;99.90;;;;;;4972584;28;20264;-61
2022/11/25 01:01:48;;;;;;;;;;;6.90;99.90;;;;;;4968662;28;19917;-62
2022/11/25 01:04:14;;;;;;;;;;;6.90;99.90;;;;;;4971376;28;19913;-63
2022/11/25 01:06:39;;;;;;;;;;;7.00;99.90;;;;;;4972204;28;20315;-61
2022/11/25 01:09:05;;;;;;;;;;;7.10;99.90;;;;;;4972906;28;20344;-63
2022/11/25 01:11:31;;;;;;;;;;;7.10;99.90;;;;;;4977926;28;19906;-63
2022/11/25 01:13:57;;;;;;;;;;;7.10;99.90;;;;;;4968702;28;19917;-63
2022/11/25 01:16:23;;;;;;;;;;;7.20;99.90;;;;;;4975082;28;19909;-62
2022/11/25 01:18:49;;;;;;;;;;;7.20;99.90;;;;;;4966355;28;20545;-61
2022/11/25 01:21:23;;;;;;;;;;;7.20;99.90;;;;;;4979681;28;19944;-63
2022/11/25 01:23:49;;;;;;;;;;;7.20;99.90;;;;;;4975334;28;20404;-62
2022/11/25 01:26:15;;;;;;;;;;;7.30;99.90;;;;;;4982772;28;19948;-62
2022/11/25 01:28:41;;;;;;;;;;;7.30;99.90;;;;;;4979797;28;19956;-61
2022/11/25 01:31:08;;;;;;;;;;;7.20;99.90;;;;;;4976903;28;19914;-59
2022/11/25 01:33:34;;;;;;;;;;;7.20;99.90;;;;;;4972371;28;19956;-61
2022/11/25 01:36:10;;;;;;;;;;;7.20;99.90;;;;;;4976301;28;19945;-64
2022/11/25 01:38:36;;;;;;;;;;;7.20;99.90;;;;;;4973545;28;19933;-62
2022/11/25 01:41:02;;;;;;;;;;;7.20;99.90;;;;;;4976859;28;19933;-61
2022/11/25 01:43:28;;;;;;;;;;;7.20;99.90;;;;;;4973582;28;19918;-61
2022/11/25 01:46:00;;;;;;;;;;;7.10;99.90;;;;;;4971440;28;20368;-61
2022/11/25 01:48:37;;;;;;;;;;;7.10;99.90;;;;;;4976205;28;20004;-63
2022/11/25 01:51:03;;;;;;;;;;;7.10;99.90;;;;;;4979584;28;20369;-62
2022/11/25 01:53:29;;;;;;;;;;;7.10;99.90;;;;;;4975618;28;19964;-64
2022/11/25 01:55:57;;;;;;;;;;;7.10;99.90;;;;;;4977320;28;20358;-61
2022/11/25 01:58:28;;;;;;;;;;;7.10;99.90;;;;;;4979299;28;19964;-61
2022/11/25 02:00:54;;;;;;;;;;;7.10;99.90;;;;;;4974281;28;20451;-63
2022/11/25 02:03:21;;;;;;;;;;;7.10;99.90;;;;;;4976317;28;20008;-65
2022/11/25 02:05:47;;;;;;;;;;;7.10;99.90;;;;;;4976826;28;19992;-66
2022/11/25 02:08:12;;;;;;;;;;;7.20;99.90;;;;;;4974536;28;20451;-61
2022/11/25 02:10:38;;;;;;;;;;;7.20;99.90;;;;;;4976872;28;20005;-61
2022/11/25 02:13:03;;;;;;;;;;;7.20;99.90;;;;;;4977554;28;19957;-63
2022/11/25 02:15:31;;;;;;;;;;;7.20;99.90;;;;;;4973447;28;20300;-63
2022/11/25 02:17:57;;;;;;;;;;;7.20;99.90;;;;;;4976438;28;19906;-62
2022/11/25 02:20:23;;;;;;;;;;;7.20;99.90;;;;;;4974836;28;19910;-60
2022/11/25 02:23:07;;;;;;;;;;;7.30;99.90;;;;;;4972632;28;19956;-63
2022/11/25 02:25:34;;;;;;;;;;;7.30;99.90;;;;;;4974148;28;20012;-62
2022/11/25 02:28:18;;;;;;;;;;;7.40;99.90;;;;;;4979085;28;19965;-59
2022/11/25 02:30:44;;;;;;;;;;;7.40;99.90;;;;;;4970609;28;19913;-61
2022/11/25 02:33:10;;;;;;;;;;;7.40;99.90;;;;;;4977178;28;19918;-58
2022/11/25 02:35:37;;;;;;;;;;;7.40;99.90;;;;;;4978836;28;20295;-58
2022/11/25 02:38:10;;;;;;;;;;;7.40;99.90;;;;;;4979122;28;19907;-61
2022/11/25 02:40:40;;;;;;;;;;;7.50;99.90;;;;;;4976658;28;20857;-59
2022/11/25 02:43:06;;;;;;;;;;;7.50;99.90;;;;;;4975136;28;20287;-57
2022/11/25 02:45:35;;;;;;;;;;;7.50;99.90;;;;;;4972740;28;20022;-58
2022/11/25 02:48:01;;;;;;;;;;;7.40;99.90;;;;;;4977729;28;19914;-63
2022/11/25 02:50:26;;;;;;;;;;;7.40;99.90;;;;;;4980565;28;20000;-65
2022/11/25 02:52:52;;;;;;;;;;;7.40;99.90;;;;;;4974846;28;19910;-63
2022/11/25 02:55:17;;;;;;;;;;;7.40;99.90;;;;;;4977559;28;19913;-61
2022/11/25 02:57:43;;;;;;;;;;;7.30;99.90;;;;;;4972273;28;19910;-62
2022/11/25 03:00:08;;;;;;;;;;;7.40;99.90;;;;;;4976514;28;19918;-61
2022/11/25 03:02:34;;;;;;;;;;;7.40;99.90;;;;;;4973989;28;20384;-63
2022/11/25 03:04:59;;;;;;;;;;;7.40;99.90;;;;;;4971480;28;19921;-59
2022/11/25 03:07:25;;;;;;;;;;;7.50;99.90;;;;;;4977352;28;19909;-59
2022/11/25 03:09:50;;;;;;;;;;;7.50;99.90;;;;;;4974777;28;19914;-63
2022/11/25 03:12:19;;;;;;;;;;;7.50;99.90;;;;;;4977694;28;19913;-65
2022/11/25 03:14:44;;;;;;;;;;;7.50;99.90;;;;;;4977955;28;19910;-63
2022/11/25 03:17:10;;;;;;;;;;;7.60;99.90;;;;;;4973237;28;19918;-62
2022/11/25 03:19:35;;;;;;;;;;;7.70;99.90;;;;;;4978465;28;19965;-60
2022/11/25 03:22:01;;;;;;;;;;;7.70;99.90;;;;;;4974582;28;19964;-63
2022/11/25 03:24:26;;;;;;;;;;;7.70;99.90;;;;;;4974682;28;20226;-62
2022/11/25 03:26:52;;;;;;;;;;;7.70;99.90;;;;;;4971914;28;19918;-57
2022/11/25 03:29:17;;;;;;;;;;;7.70;99.90;;;;;;4974703;28;20376;-63
2022/11/25 03:31:43;;;;;;;;;;;7.70;99.90;;;;;;4971762;28;19941;-64
2022/11/25 03:34:08;;;;;;;;;;;7.70;99.90;;;;;;4982134;28;19949;-58
2022/11/25 03:36:34;;;;;;;;;;;7.70;99.90;;;;;;4966667;28;20390;-61
2022/11/25 03:39:00;;;;;;;;;;;7.70;99.90;;;;;;4977775;28;19917;-65
2022/11/25 03:41:25;;;;;;;;;;;7.80;99.90;;;;;;4971798;28;20029;-59
2022/11/25 03:43:50;;;;;;;;;;;7.80;99.90;;;;;;4972619;28;19918;-60
2022/11/25 03:46:16;;;;;;;;;;;7.80;99.90;;;;;;4973827;28;19921;-63
2022/11/25 03:48:41;;;;;;;;;;;7.90;99.90;;;;;;4978372;28;20369;-59
2022/11/25 03:51:07;;;;;;;;;;;8.00;99.90;;;;;;4976773;28;19910;-61
2022/11/25 03:53:32;;;;;;;;;;;7.90;99.90;;;;;;4971874;28;19913;-64
2022/11/25 03:58:23;;;;;;;;;;;7.80;99.90;;;;;;5031240;22;20079;-60
2022/11/25 04:00:49;;;;;;;;;;;7.80;99.90;;;;;;5008156;28;19920;-56
2022/11/25 04:03:14;;;;;;;;;;;7.80;99.90;;;;;;5010746;28;20352;-55
2022/11/25 04:05:40;;;;;;;;;;;7.80;99.90;;;;;;5012628;28;20294;-54
2022/11/25 04:08:05;;;;;;;;;;;7.80;99.90;;;;;;4992557;28;19917;-56
2022/11/25 04:10:31;;;;;;;;;;;7.80;99.90;;;;;;4990314;28;19917;-56
2022/11/25 04:12:56;;;;;;;;;;;7.80;99.90;;;;;;4991412;28;19910;-58
2022/11/25 04:15:22;;;;;;;;;;;7.90;99.90;;;;;;4993919;28;21383;-60
2022/11/25 04:17:47;;;;;;;;;;;7.90;99.90;;;;;;4990556;28;19965;-56
2022/11/25 04:20:13;;;;;;;;;;;7.90;99.90;;;;;;4994889;28;19910;-57
2022/11/25 04:22:38;;;;;;;;;;;8.00;99.90;;;;;;4991449;28;19910;-56
2022/11/25 04:25:04;;;;;;;;;;;8.00;99.90;;;;;;4990035;28;19918;-54
2022/11/25 04:27:30;;;;;;;;;;;8.00;99.90;;;;;;4994601;28;19932;-56
2022/11/25 04:29:56;;;;;;;;;;;8.00;99.90;;;;;;4991434;28;20371;-57
2022/11/25 04:32:21;;;;;;;;;;;8.00;99.90;;;;;;4990648;28;19910;-58
2022/11/25 04:34:47;;;;;;;;;;;8.00;99.90;;;;;;4986944;28;19910;-59
2022/11/25 04:37:12;;;;;;;;;;;8.00;99.90;;;;;;4984470;28;20053;-54
2022/11/25 04:39:38;;;;;;;;;;;8.10;99.90;;;;;;4986061;28;20251;-53
2022/11/25 04:42:48;;;;;;;;;;;8.10;99.90;;;;;;4988537;28;19910;-60
2022/11/25 04:44:49;;;;;;;;;;;8.10;99.90;;;;;;4972996;28;19914;-58
2022/11/25 04:47:14;;;;;;;;;;;8.10;99.90;;;;;;4986077;28;19963;-56
2022/11/25 04:49:40;;;;;;;;;;;8.20;99.90;;;;;;4986758;28;19918;-58
2022/11/25 04:52:05;;;;;;;;;;;8.20;99.90;;;;;;4989689;28;19917;-56
2022/11/25 04:54:31;;;;;;;;;;;8.20;99.90;;;;;;4984360;28;20429;-57
2022/11/25 04:56:56;;;;;;;;;;;8.20;99.90;;;;;;4982421;28;20411;-60
2022/11/25 04:59:40;;;;;;;;;;;8.20;99.90;;;;;;4984665;28;19921;-54
2022/11/25 05:02:06;;;;;;;;;;;8.20;99.90;;;;;;4989104;28;19913;-59
2022/11/25 05:04:31;;;;;;;;;;;8.20;99.90;;;;;;4975492;28;20028;-58
2022/11/25 05:06:57;;;;;;;;;;;8.30;99.90;;;;;;4971446;28;20396;-57
2022/11/25 05:09:22;;;;;;;;;;;8.30;99.90;;;;;;4989457;28;19909;-58
2022/11/25 05:11:48;;;;;;;;;;;8.30;99.90;;;;;;4991731;28;19910;-60
2022/11/25 05:14:13;;;;;;;;;;;8.30;99.90;;;;;;4997651;28;19917;-60
2022/11/25 05:16:39;;;;;;;;;;;8.30;99.90;;;;;;4994536;28;19909;-58
2022/11/25 05:19:04;;;;;;;;;;;8.30;99.90;;;;;;4988269;28;20307;-59
2022/11/25 05:21:31;;;;;;;;;;;8.30;99.90;;;;;;4989562;28;19952;-59
2022/11/25 05:23:56;;;;;;;;;;;8.40;99.90;;;;;;4993269;28;19914;-57
2022/11/25 05:26:22;;;;;;;;;;;8.40;99.90;;;;;;4989860;28;19910;-60
2022/11/25 05:28:47;;;;;;;;;;;8.40;99.90;;;;;;4994131;28;19918;-57
2022/11/25 05:31:12;;;;;;;;;;;8.40;99.90;;;;;;4989262;28;19916;-57
2022/11/25 05:33:38;;;;;;;;;;;8.30;99.90;;;;;;4990042;28;20027;-59
2022/11/25 05:36:03;;;;;;;;;;;8.30;99.90;;;;;;4989511;28;19933;-59
2022/11/25 05:38:29;;;;;;;;;;;8.30;99.90;;;;;;4992633;28;20360;-59
2022/11/25 05:41:02;;;;;;;;;;;8.30;99.90;;;;;;4991487;28;20032;-58
2022/11/25 05:43:27;;;;;;;;;;;8.30;99.90;;;;;;4988238;28;20012;-57
2022/11/25 05:45:53;;;;;;;;;;;8.30;99.90;;;;;;4987839;28;20025;-57
2022/11/25 05:48:18;;;;;;;;;;;8.30;99.90;;;;;;4992766;28;19910;-56
2022/11/25 05:50:44;;;;;;;;;;;8.40;99.90;;;;;;4995034;28;19916;-59
2022/11/25 05:53:10;;;;;;;;;;;8.30;99.90;;;;;;4985086;28;20017;-57
2022/11/25 05:55:36;;;;;;;;;;;8.40;99.90;;;;;;4994593;28;19909;-59
2022/11/25 05:58:01;;;;;;;;;;;8.30;99.90;;;;;;4989598;28;19920;-55
2022/11/25 06:00:27;;;;;;;;;;;8.30;99.90;;;;;;4989634;28;20310;-58
2022/11/25 06:02:53;;;;;;;;;;;8.40;99.90;;;;;;4991082;28;19910;-59
2022/11/25 06:05:18;;;;;;;;;;;8.30;99.90;;;;;;4983973;28;19909;-59
2022/11/25 06:07:44;;;;;;;;;;;8.30;99.90;;;;;;4989123;28;20363;-58
2022/11/25 06:10:09;;;;;;;;;;;8.30;99.90;;;;;;4996281;28;19963;-58
2022/11/25 06:12:35;;;;;;;;;;;8.30;99.90;;;;;;4994579;28;20004;-58
2022/11/25 06:15:00;;;;;;;;;;;8.20;99.90;;;;;;4988304;28;19910;-56
2022/11/25 06:17:26;;;;;;;;;;;8.20;99.90;;;;;;4991638;28;19909;-58
2022/11/25 06:19:51;;;;;;;;;;;8.20;99.90;;;;;;4996279;28;19921;-59
2022/11/25 06:22:16;;;;;;;;;;;8.20;99.90;;;;;;4991909;28;20360;-59
2022/11/25 06:24:42;;;;;;;;;;;8.20;99.90;;;;;;4996996;28;19918;-60
2022/11/25 06:27:07;;;;;;;;;;;8.20;99.90;;;;;;4997921;28;19910;-56
2022/11/25 06:29:34;;;;;;;;;;;8.30;99.90;;;;;;4995866;28;19914;-59
2022/11/25 06:32:00;;;;;;;;;;;8.30;99.90;;;;;;4994160;28;19905;-59
2022/11/25 06:34:25;;;;;;;;;;;8.30;99.90;;;;;;4993696;28;19913;-59
2022/11/25 06:36:51;;;;;;;;;;;8.30;99.90;;;;;;4993217;28;20037;-58
2022/11/25 06:39:16;;;;;;;;;;;8.20;99.90;;;;;;4993655;28;19921;-59
2022/11/25 06:41:42;;;;;;;;;;;8.20;99.90;;;;;;4994311;28;19940;-57
2022/11/25 06:44:07;;;;;;;;;;;8.20;99.90;;;;;;4993655;28;19949;-57
2022/11/25 06:46:33;;;;;;;;;;;8.20;99.90;;;;;;4993944;28;20368;-56
2022/11/25 06:48:59;;;;;;;;;;;8.20;99.90;;;;;;4991522;28;20442;-58
2022/11/25 06:51:25;;;;;;;;;;;8.30;99.90;;;;;;4974992;28;19933;-59
2022/11/25 06:53:50;;;;;;;;;;;8.20;99.90;;;;;;4996708;28;19988;-60
2022/11/25 06:56:17;;;;;;;;;;;8.20;99.90;;;;;;4994837;28;19996;-60
2022/11/25 06:58:43;;;;;;;;;;;8.20;99.90;;;;;;4990620;28;19925;-59
2022/11/25 07:01:15;;;;;;;;;;;8.20;99.90;;;;;;4987322;28;19921;-59
2022/11/25 07:03:41;;;;;;;;;;;8.20;99.90;;;;;;4987546;28;19943;-59
2022/11/25 07:06:07;;;;;;;;;;;8.20;99.90;;;;;;4992779;28;20260;-59
2022/11/25 07:08:33;;;;;;;;;;;8.20;99.90;;;;;;4997084;28;19944;-59
2022/11/25 07:11:02;;;;;;;;;;;8.20;99.90;;;;;;4992077;28;19905;-59
2022/11/25 07:13:27;;;;;;;;;;;8.20;99.90;;;;;;4990959;28;19949;-57
2022/11/25 07:15:53;;;;;;;;;;;8.10;99.90;;;;;;4991294;28;19952;-57
2022/11/25 07:18:18;;;;;;;;;;;8.10;99.90;;;;;;4992016;28;19921;-58
2022/11/25 07:20:44;;;;;;;;;;;8.00;99.90;;;;;;4997166;28;19909;-58
2022/11/25 07:23:09;;;;;;;;;;;7.90;99.90;;;;;;4994876;28;20008;-57
2022/11/25 07:25:34;;;;;;;;;;;7.80;99.90;;;;;;4994811;28;19914;-56
2022/11/25 07:28:00;;;;;;;;;;;7.70;99.90;;;;;;4995080;28;19906;-58
2022/11/25 07:30:25;;;;;;;;;;;7.60;99.90;;;;;;4977161;28;19920;-59
2022/11/25 07:32:51;;;;;;;;;;;7.50;99.90;;;;;;4988674;28;19991;-58
2022/11/25 07:35:16;;;;;;;;;;;7.50;99.90;;;;;;4994191;28;20432;-58
2022/11/25 07:37:42;;;;;;;;;;;7.40;99.90;;;;;;4987141;28;20291;-58
2022/11/25 07:40:07;;;;;;;;;;;7.30;99.90;;;;;;4992829;28;19913;-58
2022/11/25 07:42:33;;;;;;;;;;;7.20;99.90;;;;;;4992449;28;19933;-59
2022/11/25 07:44:59;;;;;;;;;;;7.20;99.90;;;;;;4992347;28;19910;-59
2022/11/25 07:47:25;;;;;;;;;;;7.10;99.90;;;;;;4990389;28;19953;-58
2022/11/25 07:49:50;;;;;;;;;;;7.10;99.90;;;;;;4998152;28;19980;-55
2022/11/25 07:52:15;;;;;;;;;;;7.10;99.90;;;;;;4986491;28;20315;-57
2022/11/25 07:54:41;;;;;;;;;;;7.10;99.90;;;;;;4986746;28;19909;-52
2022/11/25 07:57:06;;;;;;;;;;;7.10;99.90;;;;;;4993600;28;20295;-56
2022/11/25 07:59:32;;;;;;;;;;;7.20;99.90;;;;;;4994393;28;19914;-54
2022/11/25 08:01:57;;;;;;;;;;;7.20;99.90;;;;;;4986520;28;19964;-53
2022/11/25 08:04:23;;;;;;;;;;;7.20;99.90;;;;;;4993611;28;19924;-54
2022/11/25 08:06:49;;;;;;;;;;;7.30;99.90;;;;;;4993472;28;20538;-53
2022/11/25 08:09:18;;;;;;;;;;;7.30;99.90;;;;;;4985676;28;20025;-52
2022/11/25 08:11:43;;;;;;;;;;;7.40;99.90;;;;;;4988115;28;19909;-57
2022/11/25 08:14:09;;;;;;;;;;;7.40;99.90;;;;;;4986910;28;19910;-55
2022/11/25 08:16:34;;;;;;;;;;;7.40;99.90;;;;;;4988826;28;20371;-54
2022/11/25 08:19:01;;;;;;;;;;;7.50;99.90;;;;;;4990710;28;19914;-55
2022/11/25 08:21:27;;;;;;;;;;;7.50;99.90;;;;;;4992766;28;19921;-57
2022/11/25 08:23:53;;;;;;;;;;;;;;;;;;4983143;28;19924;-55
2022/11/25 08:26:20;;;;;;;;;;;7.60;99.90;;;;;;4984670;28;20319;-57
2022/11/25 08:28:46;;;;;;;;;;;7.60;99.90;;;;;;4991175;28;19955;-54
2022/11/25 08:31:14;;;;;;;;;;;7.70;99.90;;;;;;4993204;28;19913;-53
2022/11/25 08:33:39;;;;;;;;;;;7.70;99.90;;;;;;4995578;28;19906;-54
2022/11/25 08:36:05;;;;;;;;;;;7.70;99.90;;;;;;4993615;28;20138;-54
2022/11/25 08:38:31;;;;;;;;;;;7.70;99.90;;;;;;4995429;28;19917;-54
2022/11/25 08:40:56;;;;;;;;;;;7.80;99.90;;;;;;4988627;28;19921;-56
2022/11/25 08:43:22;;;;;;;;;;;7.80;99.90;;;;;;4983630;28;20439;-55
2022/11/25 08:45:48;;;;;;;;;;;7.90;99.90;;;;;;4987725;28;19910;-56
2022/11/25 08:48:14;;;;;;;;;;;8.00;99.90;;;;;;4988475;28;19910;-54
2022/11/25 08:50:43;;;;;;;;;;;8.00;99.90;;;;;;4988564;28;19914;-57
2022/11/25 08:53:09;;;;;;;;;;;8.10;99.90;;;;;;4990315;28;19917;-55
2022/11/25 08:55:37;;;;;;;;;;;8.10;99.90;;;;;;4995551;28;19909;-56
2022/11/25 08:58:02;;;;;;;;;;;8.20;99.90;;;;;;4989196;28;19918;-57
2022/11/25 09:00:28;;;;;;;;;;;8.20;99.90;;;;;;4986898;28;20292;-57
2022/11/25 09:02:53;;;;;;;;;;;8.30;99.90;;;;;;4986456;28;19996;-54
2022/11/25 09:05:19;;;;;;;;;;;8.40;99.90;;;;;;4983356;28;20008;-53
2022/11/25 09:07:44;;;;;;;;;;;8.40;99.90;;;;;;4984696;28;20396;-56
2022/11/25 09:10:13;;;;;;;;;;;8.50;99.90;;;;;;4986300;28;19988;-57
2022/11/25 09:12:39;;;;;;;;;;;8.60;99.90;;;;;;4988737;28;19972;-57
2022/11/25 09:15:04;;;;;;;;;;;8.70;99.90;;;;;;4996303;28;19914;-56
2022/11/25 09:17:30;;;;;;;;;;;8.70;99.90;;;;;;4990704;28;19910;-54
2022/11/25 09:19:56;;;;;;;;;;;8.80;99.90;;;;;;4992862;28;19910;-56
2022/11/25 09:22:21;;;;;;;;;;;8.90;99.90;;;;;;4984805;28;20376;-57
2022/11/25 09:24:47;;;;;;;;;;;8.90;99.90;;;;;;4983746;28;20429;-56
2022/11/25 09:27:12;;;;;;;;;;;9.00;99.90;;;;;;4989808;28;19969;-57
2022/11/25 09:29:37;;;;;;;;;;;9.10;99.90;;;;;;4985420;28;20032;-56
2022/11/25 09:32:03;;;;;;;;;;;9.10;99.90;;;;;;4985917;28;19957;-54
2022/11/25 09:34:30;;;;;;;;;;;9.20;99.90;;;;;;4987675;28;19921;-56
2022/11/25 09:36:55;;;;;;;;;;;9.30;99.90;;;;;;4990614;28;20398;-54
2022/11/25 09:39:20;;;;;;;;;;;9.40;99.90;;;;;;4988168;28;19910;-55
2022/11/25 09:47:41;;;;;;;;;;;9.80;99.90;;;;;;4985498;28;19971;-52
2022/11/25 09:50:18;;;;;;;;;;;10.00;99.90;;;;;;4988545;28;20319;-55
2022/11/25 09:53:02;;;;;;;;;;;10.00;99.90;;;;;;4995665;28;20716;-53
2022/11/25 09:55:31;;;;;;;;;;;10.10;99.90;;;;;;4988960;28;19943;-53
2022/11/25 09:58:04;;;;;;;;;;;10.20;99.90;;;;;;4990529;28;19917;-54
2022/11/25 10:00:37;;;;;;;;;;;10.20;99.90;;;;;;4991713;28;20004;-54
2022/11/25 10:03:32;;;;;;;;;;;10.20;99.90;;;;;;4992726;28;19924;-55
2022/11/25 10:06:10;;;;;;;;;;;10.30;99.90;;;;;;4994624;23;19925;-59
2022/11/25 10:08:37;;;;;;;;;;;10.30;99.90;;;;;;5007763;28;20445;-60
2022/11/25 10:11:21;;;;;;;;;;;10.30;99.90;;;;;;4997831;28;19920;-60
2022/11/25 10:13:47;;;;;;;;;;;10.40;99.90;;;;;;5003881;28;19920;-58
2022/11/25 10:16:26;;;;;;;;;;;10.40;99.90;;;;;;5000415;28;19910;-58
2022/11/25 10:18:56;;;;;;;;;;;10.50;99.90;;;;;;4989784;28;20125;-58
2022/11/25 10:21:22;;;;;;;;;;;10.60;99.90;;;;;;4991274;28;20008;-59
2022/11/25 10:23:47;;;;;;;;;;;10.70;99.90;;;;;;4986116;28;20407;-60
2022/11/25 10:26:14;;;;;;;;;;;10.80;99.90;;;;;;4992472;28;19914;-60
2022/11/25 10:28:40;;;;;;;;;;;10.80;99.90;;;;;;4983620;28;19975;-61
2022/11/25 10:31:09;;;;;;;;;;;10.80;99.90;;;;;;4989268;28;19909;-57
2022/11/25 10:33:52;;;;;;;;;;;10.80;99.90;;;;;;4990947;28;19956;-60
2022/11/25 10:36:17;;;;;;;;;;;10.90;99.90;;;;;;4992487;28;19965;-62
2022/11/25 10:38:48;;;;;;;;;;;10.90;99.90;;;;;;4986844;28;19952;-59
2022/11/25 10:41:16;;;;;;;;;;;10.90;99.90;;;;;;4974383;28;19964;-59
2022/11/25 10:43:42;;;;;;;;;;;11.00;99.90;;;;;;4987456;28;20415;-60
2022/11/25 10:46:17;;;;;;;;;;;11.10;99.90;;;;;;4988760;28;19954;-60
2022/11/25 10:49:12;;;;;;;;;;;11.10;99.90;;;;;;4987085;28;19913;-59
2022/11/25 10:51:48;;;;;;;;;;;11.20;99.90;;;;;;4968138;28;20367;-59
2022/11/25 10:54:13;;;;;;;;;;;11.30;99.90;;;;;;4984522;28;19941;-60
2022/11/25 10:56:43;;;;;;;;;;;11.30;99.90;;;;;;4990825;28;19952;-59
2022/11/25 10:59:13;;;;;;;;;;;11.30;99.90;;;;;;4985886;28;20310;-60
2022/11/25 11:01:39;;;;;;;;;;;11.30;99.90;;;;;;4985737;28;19956;-57
2022/11/25 11:04:09;;;;;;;;;;;11.30;99.90;;;;;;4984244;28;19925;-59
2022/11/25 11:06:35;;;;;;;;;;;11.50;99.90;;;;;;4983694;28;19948;-59
2022/11/25 11:09:01;;;;;;;;;;;11.70;99.90;;;;;;4984928;28;19916;-58
2022/11/25 11:11:27;;;;;;;;;;;11.90;99.90;;;;;;4984077;28;19913;-59
2022/11/25 11:14:07;;;;;;;;;;;12.10;99.90;;;;;;4979667;28;19909;-59
2022/11/25 11:16:35;;;;;;;;;;;12.20;99.90;;;;;;4987355;28;19914;-60
2022/11/25 11:19:01;;;;;;;;;;;12.10;99.90;;;;;;4998851;28;20273;-59
2022/11/25 11:21:31;;;;;;;;;;;12.10;99.90;;;;;;4988189;28;19920;-60
2022/11/25 11:23:58;;;;;;;;;;;12.10;99.90;;;;;;4978402;28;19920;-60
2022/11/25 11:26:26;;;;;;;;;;;12.10;99.90;;;;;;4985001;28;19916;-60
2022/11/25 11:29:00;;;;;;;;;;;12.10;99.90;;;;;;4971441;28;20036;-62
2022/11/25 11:31:30;;;;;;;;;;;12.20;99.90;;;;;;4989117;28;20303;-60
2022/11/25 11:34:01;;;;;;;;;;;12.20;99.90;;;;;;4987309;28;19910;-59
2022/11/25 11:36:42;;;;;;;;;;;12.30;99.90;;;;;;4982315;28;20140;-59
2022/11/25 11:39:07;;;;;;;;;;;12.40;99.90;;;;;;4979415;28;19918;-59
2022/11/25 11:41:44;;;;;;;;;;;12.30;99.90;;;;;;4985394;28;19910;-59
2022/11/25 11:44:10;;;;;;;;;;;12.20;99.90;;;;;;4983847;28;19921;-58
2022/11/25 11:46:42;;;;;;;;;;;12.20;99.90;;;;;;4980577;28;19909;-59
2022/11/25 11:49:19;;;;;;;;;;;12.30;99.90;;;;;;4980141;28;20506;-61
2022/11/25 11:52:03;;;;;;;;;;;12.40;99.90;;;;;;4986802;28;20342;-58
2022/11/25 11:54:29;;;;;;;;;;;12.40;99.90;;;;;;4983520;28;19920;-58
2022/11/25 11:57:18;;;;;;;;;;;12.60;99.90;;;;;;4987626;28;19906;-58
2022/11/25 11:59:48;;;;;;;;;;;12.60;99.90;;;;;;4986600;28;19960;-58
2022/11/25 12:02:39;;;;;;;;;;;12.40;99.90;;;;;;4989721;28;20012;-60
2022/11/25 12:05:10;;;;;;;;;;;12.40;99.90;;;;;;4986743;28;19944;-59
2022/11/25 12:07:54;;;;;;;;;;;12.50;99.90;;;;;;4986794;28;19924;-60
2022/11/25 12:10:25;;;;;;;;;;;12.70;99.90;;;;;;4983990;28;19918;-60
2022/11/25 12:12:52;;;;;;;;;;;12.90;99.90;;;;;;4987114;28;19955;-60
2022/11/25 12:15:27;;;;;;;;;;;12.90;99.90;;;;;;4985889;28;19925;-61
2022/11/25 12:18:01;;;;;;;;;;;12.90;99.90;;;;;;4993018;28;19914;-61
2022/11/25 12:20:30;;;;;;;;;;;13.00;99.90;;;;;;4978412;28;20134;-59
2022/11/25 12:23:00;;;;;;;;;;;13.10;99.90;;;;;;4981867;28;19921;-59
2022/11/25 12:25:30;;;;;;;;;;;13.00;99.90;;;;;;4983687;28;19925;-60
2022/11/25 12:28:15;;;;;;;;;;;13.00;99.90;;;;;;4985068;28;19909;-59
2022/11/25 12:30:52;;;;;;;;;;;12.90;99.90;;;;;;4983269;28;19948;-60
2022/11/25 12:33:20;;;;;;;;;;;13.10;99.90;;;;;;4978274;28;20011;-59
2022/11/25 12:35:46;;;;;;;;;;;13.10;99.90;;;;;;4988368;28;20371;-60
2022/11/25 12:38:30;;;;;;;;;;;12.80;99.90;;;;;;4986049;28;19917;-60
2022/11/25 12:41:01;;;;;;;;;;;12.60;99.90;;;;;;4982930;28;19929;-60
2022/11/25 12:43:49;;;;;;;;;;;12.40;99.90;;;;;;4984931;28;19909;-60
2022/11/25 12:46:15;;;;;;;;;;;12.40;99.90;;;;;;4981680;28;19980;-60
2022/11/25 12:48:41;;;;;;;;;;;12.50;99.90;;;;;;4978685;28;19914;-60
2022/11/25 12:51:30;;;;;;;;;;;12.50;99.90;;;;;;4986107;28;19916;-59
2022/11/25 12:54:14;;;;;;;;;;;12.70;99.90;;;;;;4967144;28;19968;-60
2022/11/25 12:56:50;;;;;;;;;;;12.80;99.90;;;;;;4984856;28;19959;-60
2022/11/25 12:59:40;;;;;;;;;;;12.90;99.90;;;;;;4977908;28;19914;-59
2022/11/25 13:02:14;;;;;;;;;;;13.00;99.90;;;;;;4981704;28;20308;-60
2022/11/25 13:05:00;;;;;;;;;;;13.10;99.90;;;;;;4979833;28;19949;-60
2022/11/25 13:07:27;;;;;;;;;;;13.00;99.90;;;;;;4982254;28;19957;-59
2022/11/25 13:10:06;;;;;;;;;;;13.00;99.90;;;;;;4960707;28;19917;-60
2022/11/25 13:12:47;;;;;;;;;;;13.10;99.90;;;;;;4973427;28;19921;-59
2022/11/25 13:15:18;;;;;;;;;;;13.10;99.90;;;;;;4983168;28;20007;-59
2022/11/25 13:17:45;;;;;;;;;;;13.00;99.90;;;;;;4985468;28;19914;-60
2022/11/25 13:20:26;;;;;;;;;;;13.00;99.90;;;;;;4989319;28;19917;-59
2022/11/25 13:23:06;;;;;;;;;;;13.00;99.90;;;;;;4986901;28;19910;-59
2022/11/25 13:25:32;;;;;;;;;;;12.80;99.90;;;;;;4984907;28;19964;-58
2022/11/25 13:27:59;;;;;;;;;;;12.80;99.90;;;;;;4984389;28;19913;-58
2022/11/25 13:30:30;;;;;;;;;;;12.70;99.90;;;;;;4983168;28;19914;-58
2022/11/25 13:32:56;;;;;;;;;;;12.90;99.90;;;;;;4979531;28;19921;-61
2022/11/25 13:35:24;;;;;;;;;;;12.80;99.90;;;;;;4985250;28;20363;-58
2022/11/25 13:37:50;;;;;;;;;;;12.90;99.90;;;;;;4988571;28;19914;-60
2022/11/25 13:40:19;;;;;;;;;;;13.00;99.90;;;;;;4985037;28;20302;-59
2022/11/25 13:42:44;;;;;;;;;;;13.00;99.90;;;;;;4983321;28;19922;-58
2022/11/25 13:45:29;;;;;;;;;;;13.00;99.90;;;;;;4979972;28;19975;-59
2022/11/25 13:47:55;;;;;;;;;;;13.10;99.90;;;;;;4986055;28;19921;-58
2022/11/25 13:50:22;;;;;;;;;;;13.00;99.90;;;;;;4965515;28;19909;-59
2022/11/25 13:52:58;;;;;;;;;;;12.70;99.90;;;;;;4987985;28;19918;-58
2022/11/25 13:55:34;;;;;;;;;;;12.70;99.90;;;;;;4964548;28;19917;-58
2022/11/25 13:58:00;;;;;;;;;;;12.60;99.90;;;;;;4992687;28;19917;-58
2022/11/25 14:00:32;;;;;;;;;;;12.50;99.90;;;;;;4989425;28;20840;-57
2022/11/25 14:03:16;;;;;;;;;;;12.40;99.90;;;;;;4985791;28;19921;-56
2022/11/25 14:06:14;;;;;;;;;;;12.40;99.90;;;;;;4992056;28;19922;-60
2022/11/25 14:08:43;;;;;;;;;;;12.30;99.90;;;;;;4972098;28;19916;-62
2022/11/25 14:11:08;;;;;;;;;;;12.30;99.90;;;;;;4961285;28;20282;-58
2022/11/25 14:13:40;;;;;;;;;;;12.30;99.90;;;;;;4981699;28;19918;-59
2022/11/25 14:16:14;;;;;;;;;;;12.10;99.90;;;;;;4982735;28;19914;-58
2022/11/25 14:18:54;;;;;;;;;;;12.10;99.90;;;;;;4984537;28;20421;-59
2022/11/25 14:21:38;;;;;;;;;;;12.00;99.90;;;;;;4976553;28;20477;-59
2022/11/25 14:24:23;;;;;;;;;;;12.00;99.90;;;;;;4989148;28;19917;-62
2022/11/25 14:26:52;;;;;;;;;;;11.90;99.90;;;;;;4985715;28;19910;-58
2022/11/25 14:29:24;;;;;;;;;;;11.90;99.90;;;;;;4988867;28;19917;-56
2022/11/25 14:31:52;;;;;;;;;;;11.90;99.90;;;;;;4989004;28;19909;-59
2022/11/25 14:34:23;;;;;;;;;;;11.90;99.90;;;;;;4986650;28;20024;-60
2022/11/25 14:36:52;;;;;;;;;;;11.90;99.90;;;;;;4970777;28;20052;-60
2022/11/25 14:39:37;;;;;;;;;;;11.90;99.90;;;;;;4996786;28;19924;-60
2022/11/25 14:42:08;;;;;;;;;;;11.80;99.90;;;;;;4956250;28;19955;-57
2022/11/25 14:44:45;;;;;;;;;;;11.80;99.90;;;;;;4989779;28;19917;-58